Bridge of Weir, United Kingdom
Current Conditions -  °F | °C
As of 2:20 AM on Friday 19 Dec 2014 (Local Time) from EGPF Reporting Station
Broken Clouds Broken Clouds  
Wind Chill:   Ceiling: 4000
Heat Index:   Visibility: 6mi
Dew Point:   Wind: 15mph
Humidity: 87%   Direction: 250°WSW
Pressure: 29.5"   Gusts: NA
Location:  55.85°N, 4.58°W
Report Text: EGPF 190220Z AUTO 25013KT 9999 FEW013/// BKN040/// //////TCU 05/03 Q0999
Loading
Personal Weather Stations






























Interactive Weather Map New forecast layout! Learn more

10-Day Weather Forecast

Advertisements
Track Severe Weather on mobile